Time;durP1;ratioP1;P1;durP2;ratioP2;P2;SDS_P1;SDS_P2;PMS_P1;PMS_P2;Temp;Humidity;BMP_temperature;BMP_pressure;BME280_temperature;BME280_humidity;BME280_pressure;Samples;Min_cycle;Max_cycle;Signal;HPM_P1;HPM_P2
2022/04/24 00:01:07;;;;;;;;;;;10.80;64.60;;;;;;5151450;27;19924;-71
2022/04/24 00:03:33;;;;;;;;;;;10.80;64.60;;;;;;5132752;27;19922;-71
2022/04/24 00:05:59;;;;;;;;;;;10.80;64.70;;;;;;5151400;27;19927;-72
2022/04/24 00:08:25;;;;;;;;;;;10.70;64.70;;;;;;5151345;27;19907;-72
2022/04/24 00:10:50;;;;;;;;;;;10.70;64.60;;;;;;5151474;27;19918;-71
2022/04/24 00:13:16;;;;;;;;;;;10.70;64.50;;;;;;5151423;27;19946;-73
2022/04/24 00:15:42;;;;;;;;;;;10.60;65.00;;;;;;5151228;27;19998;-72
2022/04/24 00:18:08;;;;;;;;;;;10.60;65.10;;;;;;5151259;27;19919;-72
2022/04/24 00:20:34;;;;;;;;;;;10.60;65.30;;;;;;5150379;27;20353;-68
2022/04/24 00:22:59;;;;;;;;;;;10.60;65.20;;;;;;5133109;27;20002;-72
2022/04/24 00:25:25;;;;;;;;;;;10.60;65.10;;;;;;5151130;27;19910;-72
2022/04/24 00:27:51;;;;;;;;;;;10.60;64.90;;;;;;5151370;27;19922;-72
2022/04/24 00:30:16;;;;;;;;;;;10.50;64.90;;;;;;5151164;27;19907;-72
2022/04/24 00:32:42;;;;;;;;;;;10.50;65.00;;;;;;5151374;27;20437;-71
2022/04/24 00:35:08;;;;;;;;;;;10.40;64.90;;;;;;5151043;27;19907;-71
2022/04/24 00:37:33;;;;;;;;;;;10.40;65.00;;;;;;5150602;27;19922;-71
2022/04/24 00:39:59;;;;;;;;;;;10.40;65.10;;;;;;5150977;27;19919;-72
2022/04/24 00:42:24;;;;;;;;;;;10.40;65.10;;;;;;5150827;27;20395;-72
2022/04/24 00:44:50;;;;;;;;;;;10.30;65.00;;;;;;5150534;27;19923;-71
2022/04/24 00:47:17;;;;;;;;;;;10.30;65.40;;;;;;5150606;27;19907;-71
2022/04/24 00:49:43;;;;;;;;;;;10.30;65.60;;;;;;5150780;27;20009;-72
2022/04/24 00:52:10;;;;;;;;;;;10.30;65.30;;;;;;5150993;27;19922;-72
2022/04/24 00:54:35;;;;;;;;;;;10.30;65.40;;;;;;5150755;27;19999;-73
2022/04/24 00:57:02;;;;;;;;;;;10.30;65.40;;;;;;5150732;27;19968;-72
2022/04/24 00:59:27;;;;;;;;;;;10.30;65.20;;;;;;5150772;27;19936;-71
2022/04/24 01:01:53;;;;;;;;;;;10.20;65.30;;;;;;5150496;27;19911;-72
2022/04/24 01:04:19;;;;;;;;;;;10.20;65.40;;;;;;5150861;27;19915;-72
2022/04/24 01:06:45;;;;;;;;;;;10.20;65.30;;;;;;5150409;27;19934;-72
2022/04/24 01:09:10;;;;;;;;;;;10.10;65.50;;;;;;5150361;27;20002;-72
2022/04/24 01:11:36;;;;;;;;;;;10.10;65.60;;;;;;5150229;27;19927;-72
2022/04/24 01:14:01;;;;;;;;;;;10.10;65.50;;;;;;5131789;27;19935;-71
2022/04/24 01:16:27;;;;;;;;;;;10.10;65.90;;;;;;5150140;27;19907;-72
2022/04/24 01:18:53;;;;;;;;;;;10.10;65.70;;;;;;5150146;27;20405;-73
2022/04/24 01:21:18;;;;;;;;;;;10.10;65.70;;;;;;5150173;27;19914;-73
2022/04/24 01:23:44;;;;;;;;;;;10.10;65.60;;;;;;5131398;27;19922;-71
2022/04/24 01:26:09;;;;;;;;;;;10.10;65.50;;;;;;5131490;27;20308;-73
2022/04/24 01:28:35;;;;;;;;;;;10.00;65.50;;;;;;5150142;27;20266;-72
2022/04/24 01:31:00;;;;;;;;;;;10.00;65.70;;;;;;5149988;27;19915;-73
2022/04/24 01:33:27;;;;;;;;;;;9.90;65.90;;;;;;5149937;27;19918;-73
2022/04/24 01:35:53;;;;;;;;;;;9.90;65.90;;;;;;5149977;27;20001;-71
2022/04/24 01:38:18;;;;;;;;;;;9.90;66.10;;;;;;5149947;27;20018;-71
2022/04/24 01:40:44;;;;;;;;;;;9.90;66.10;;;;;;5149895;27;19915;-72
2022/04/24 01:43:09;;;;;;;;;;;9.90;66.20;;;;;;5149942;27;19944;-73
2022/04/24 01:45:35;;;;;;;;;;;9.80;66.30;;;;;;5149813;27;19944;-72
2022/04/24 01:48:00;;;;;;;;;;;9.80;66.40;;;;;;5149839;27;19922;-72
2022/04/24 01:50:26;;;;;;;;;;;9.80;67.30;;;;;;5149827;27;19985;-73
2022/04/24 01:52:51;;;;;;;;;;;9.80;67.40;;;;;;5149918;27;19938;-72
2022/04/24 01:55:18;;;;;;;;;;;9.70;66.80;;;;;;5149709;27;19922;-73
2022/04/24 01:57:44;;;;;;;;;;;9.70;66.70;;;;;;5149739;27;20318;-71
2022/04/24 02:00:10;;;;;;;;;;;9.70;66.70;;;;;;5149353;27;19915;-70
2022/04/24 02:02:35;;;;;;;;;;;9.60;66.60;;;;;;5149674;27;19935;-71
2022/04/24 02:05:01;;;;;;;;;;;9.60;66.50;;;;;;5149458;27;20333;-71
2022/04/24 02:07:28;;;;;;;;;;;9.60;66.50;;;;;;5149591;27;19919;-71
2022/04/24 02:09:54;;;;;;;;;;;9.60;66.50;;;;;;5149662;27;19911;-71
2022/04/24 02:12:20;;;;;;;;;;;9.60;66.50;;;;;;5149557;27;19915;-71
2022/04/24 02:14:45;;;;;;;;;;;9.50;66.50;;;;;;5149363;27;19922;-72
2022/04/24 02:17:11;;;;;;;;;;;9.50;66.40;;;;;;5149535;27;19947;-71
2022/04/24 02:19:37;;;;;;;;;;;9.50;66.50;;;;;;5149509;27;19933;-71
2022/04/24 02:22:03;;;;;;;;;;;9.50;66.40;;;;;;5149598;27;19912;-71
2022/04/24 02:24:28;;;;;;;;;;;9.50;66.30;;;;;;5149373;27;19911;-72
2022/04/24 02:26:54;;;;;;;;;;;9.50;66.30;;;;;;5149385;27;19942;-71
2022/04/24 02:29:20;;;;;;;;;;;9.50;66.20;;;;;;5149401;27;19918;-70
2022/04/24 02:31:45;;;;;;;;;;;9.50;66.30;;;;;;5130813;27;19915;-71
2022/04/24 02:34:11;;;;;;;;;;;9.50;66.20;;;;;;5149366;27;19911;-72
2022/04/24 02:36:36;;;;;;;;;;;9.50;66.20;;;;;;5149064;27;19920;-72
2022/04/24 02:39:02;;;;;;;;;;;9.40;66.10;;;;;;5149397;27;19962;-72
2022/04/24 02:41:28;;;;;;;;;;;9.40;66.30;;;;;;5149354;27;19922;-72
2022/04/24 02:43:53;;;;;;;;;;;9.40;66.40;;;;;;5150117;27;19935;-71
2022/04/24 02:46:19;;;;;;;;;;;9.40;66.40;;;;;;5153236;27;19930;-71
2022/04/24 02:48:44;;;;;;;;;;;9.30;66.50;;;;;;5153231;27;19919;-72
2022/04/24 02:51:10;;;;;;;;;;;9.30;66.30;;;;;;5153258;27;19956;-73
2022/04/24 02:53:35;;;;;;;;;;;9.30;66.20;;;;;;5153253;27;19943;-71
2022/04/24 02:56:01;;;;;;;;;;;9.30;66.20;;;;;;5153065;27;19922;-72
2022/04/24 02:58:27;;;;;;;;;;;9.20;66.20;;;;;;5134494;27;20009;-71
2022/04/24 03:00:54;;;;;;;;;;;9.20;66.40;;;;;;5153058;27;19912;-72
2022/04/24 03:03:20;;;;;;;;;;;9.20;66.20;;;;;;5152665;27;20335;-72
2022/04/24 03:05:46;;;;;;;;;;;9.20;66.20;;;;;;5152606;27;20002;-72
2022/04/24 03:08:12;;;;;;;;;;;9.20;66.20;;;;;;5152713;27;20349;-72
2022/04/24 03:10:38;;;;;;;;;;;9.20;66.30;;;;;;5152716;27;19907;-72
2022/04/24 03:13:04;;;;;;;;;;;9.20;66.20;;;;;;5133993;27;19917;-71
2022/04/24 03:15:29;;;;;;;;;;;9.20;66.40;;;;;;5153158;27;19962;-72
2022/04/24 03:17:55;;;;;;;;;;;9.10;66.40;;;;;;5152843;27;19950;-71
2022/04/24 03:20:21;;;;;;;;;;;9.10;66.40;;;;;;5152670;27;20026;-73
2022/04/24 03:22:47;;;;;;;;;;;9.10;66.50;;;;;;5152664;27;19911;-72
2022/04/24 03:25:12;;;;;;;;;;;9.00;66.40;;;;;;5152351;27;20277;-71
2022/04/24 03:27:38;;;;;;;;;;;9.00;66.80;;;;;;5152561;27;19997;-72
2022/04/24 03:30:05;;;;;;;;;;;9.00;66.70;;;;;;5152433;27;20289;-72
2022/04/24 03:32:31;;;;;;;;;;;8.90;66.80;;;;;;5152299;27;19907;-73
2022/04/24 03:34:57;;;;;;;;;;;8.90;66.80;;;;;;5152307;27;20014;-71
2022/04/24 03:37:23;;;;;;;;;;;8.80;66.70;;;;;;5152161;27;20029;-72
2022/04/24 03:39:48;;;;;;;;;;;8.80;66.60;;;;;;5152264;27;19957;-73
2022/04/24 03:42:14;;;;;;;;;;;8.80;66.70;;;;;;5152235;27;19911;-72
2022/04/24 03:44:39;;;;;;;;;;;8.70;66.60;;;;;;5151924;27;19922;-71
2022/04/24 03:47:06;;;;;;;;;;;8.80;66.60;;;;;;5152229;27;20391;-72
2022/04/24 03:49:32;;;;;;;;;;;8.70;66.60;;;;;;5152196;27;19911;-72
2022/04/24 03:51:57;;;;;;;;;;;8.70;66.80;;;;;;5152070;27;19911;-71
2022/04/24 03:54:23;;;;;;;;;;;8.70;66.70;;;;;;5151993;27;19911;-72
2022/04/24 03:56:48;;;;;;;;;;;8.70;66.70;;;;;;5150895;27;19976;-72
2022/04/24 03:59:14;;;;;;;;;;;8.70;66.80;;;;;;5151856;27;20011;-72
2022/04/24 04:01:39;;;;;;;;;;;8.70;66.80;;;;;;5151868;27;19929;-72
2022/04/24 04:04:05;;;;;;;;;;;8.70;67.00;;;;;;5151690;27;19998;-71
2022/04/24 04:06:31;;;;;;;;;;;8.70;67.00;;;;;;5133331;27;20330;-73
2022/04/24 04:08:56;;;;;;;;;;;8.70;67.10;;;;;;5152213;27;19911;-73
2022/04/24 04:11:22;;;;;;;;;;;8.70;66.90;;;;;;5133121;27;19919;-71
2022/04/24 04:13:47;;;;;;;;;;;8.70;67.00;;;;;;5151620;27;20338;-72
2022/04/24 04:16:13;;;;;;;;;;;8.60;66.80;;;;;;5151456;27;19919;-72
2022/04/24 04:18:38;;;;;;;;;;;8.60;67.20;;;;;;5151477;27;19947;-72
2022/04/24 04:21:04;;;;;;;;;;;8.60;67.00;;;;;;5132994;27;19919;-72
2022/04/24 04:23:30;;;;;;;;;;;8.60;67.30;;;;;;5151397;27;20001;-72
2022/04/24 04:25:56;;;;;;;;;;;8.60;67.10;;;;;;5151258;27;19915;-72
2022/04/24 04:28:21;;;;;;;;;;;8.60;67.20;;;;;;5151205;27;19923;-72
2022/04/24 04:30:47;;;;;;;;;;;8.60;67.00;;;;;;5151356;27;19919;-72
2022/04/24 04:33:12;;;;;;;;;;;8.60;66.90;;;;;;5151326;27;20484;-72
2022/04/24 04:35:38;;;;;;;;;;;8.50;67.50;;;;;;5151478;27;20005;-72
2022/04/24 04:38:04;;;;;;;;;;;8.50;67.00;;;;;;5150992;27;20077;-72
2022/04/24 04:40:30;;;;;;;;;;;8.50;67.00;;;;;;5132624;27;19967;-72
2022/04/24 04:42:56;;;;;;;;;;;8.50;66.80;;;;;;5151044;27;19914;-72
2022/04/24 04:45:22;;;;;;;;;;;8.50;66.80;;;;;;5150747;27;19919;-71
2022/04/24 04:47:47;;;;;;;;;;;8.50;66.90;;;;;;5150947;27;19990;-72
2022/04/24 04:50:13;;;;;;;;;;;8.50;66.80;;;;;;5150980;27;19960;-72
2022/04/24 04:52:39;;;;;;;;;;;8.50;66.90;;;;;;5150915;27;19936;-72
2022/04/24 04:55:04;;;;;;;;;;;8.50;67.00;;;;;;5132336;27;19934;-72
2022/04/24 04:57:30;;;;;;;;;;;8.50;66.90;;;;;;5150825;27;19958;-71
2022/04/24 04:59:56;;;;;;;;;;;8.50;67.10;;;;;;5150754;27;19911;-72
2022/04/24 05:02:21;;;;;;;;;;;8.40;67.00;;;;;;5150955;27;20360;-73
2022/04/24 05:04:47;;;;;;;;;;;8.40;66.80;;;;;;5150509;27;19956;-72
2022/04/24 05:07:13;;;;;;;;;;;8.50;67.00;;;;;;5150257;27;19937;-71
2022/04/24 05:09:38;;;;;;;;;;;8.50;66.90;;;;;;5150635;27;19913;-71
2022/04/24 05:12:04;;;;;;;;;;;8.40;66.90;;;;;;5132080;27;19947;-73
2022/04/24 05:14:31;;;;;;;;;;;8.50;67.00;;;;;;5150282;27;19907;-73
2022/04/24 05:16:56;;;;;;;;;;;8.50;67.00;;;;;;5150411;27;19933;-72
2022/04/24 05:19:22;;;;;;;;;;;8.60;67.00;;;;;;5150424;27;20361;-72
2022/04/24 05:21:48;;;;;;;;;;;8.60;67.00;;;;;;5150310;27;19911;-72
2022/04/24 05:24:13;;;;;;;;;;;8.80;67.00;;;;;;5150135;27;19964;-72
2022/04/24 05:26:40;;;;;;;;;;;8.90;67.00;;;;;;5150109;27;19952;-72
2022/04/24 05:29:06;;;;;;;;;;;9.00;67.10;;;;;;5150124;27;19942;-72
2022/04/24 05:31:31;;;;;;;;;;;9.20;67.00;;;;;;5150121;27;19950;-72
2022/04/24 05:33:57;;;;;;;;;;;9.30;66.80;;;;;;5150039;27;19915;-72
2022/04/24 05:36:23;;;;;;;;;;;9.40;67.00;;;;;;5149848;27;19911;-73
2022/04/24 05:38:48;;;;;;;;;;;9.50;67.00;;;;;;5150051;27;19929;-73
2022/04/24 05:41:14;;;;;;;;;;;9.60;66.90;;;;;;5149987;27;19907;-72
2022/04/24 05:43:39;;;;;;;;;;;9.70;66.80;;;;;;5149878;27;19925;-72
2022/04/24 05:46:05;;;;;;;;;;;9.80;66.80;;;;;;5149594;27;19930;-73
2022/04/24 05:48:31;;;;;;;;;;;9.90;66.70;;;;;;5149950;27;19911;-71
2022/04/24 05:50:57;;;;;;;;;;;10.00;66.70;;;;;;5149837;27;20364;-72
2022/04/24 05:53:23;;;;;;;;;;;10.10;66.70;;;;;;5149910;27;19911;-72
2022/04/24 05:55:48;;;;;;;;;;;10.20;66.60;;;;;;5149561;27;19915;-71
2022/04/24 05:58:14;;;;;;;;;;;10.30;66.70;;;;;;5150047;27;19911;-71
2022/04/24 06:00:39;;;;;;;;;;;10.40;66.70;;;;;;5149634;27;19912;-72
2022/04/24 06:03:05;;;;;;;;;;;10.50;66.70;;;;;;5149694;27;19918;-72
2022/04/24 06:05:30;;;;;;;;;;;10.60;66.70;;;;;;5149508;27;19915;-71
2022/04/24 06:07:56;;;;;;;;;;;10.60;66.70;;;;;;5130948;27;20329;-71
2022/04/24 06:10:22;;;;;;;;;;;10.70;66.80;;;;;;5149519;27;20006;-73
2022/04/24 06:12:50;;;;;;;;;;;10.70;66.80;;;;;;5149634;27;20411;-71
2022/04/24 06:15:17;;;;;;;;;;;10.70;66.80;;;;;;5130701;27;20417;-72
2022/04/24 06:17:43;;;;;;;;;;;10.80;66.80;;;;;;5149483;27;19923;-71
2022/04/24 06:20:09;;;;;;;;;;;10.80;66.80;;;;;;5152600;27;19998;-72
2022/04/24 06:22:48;;;;;;;;;;;10.90;66.70;;;;;;5135103;27;20331;-72
2022/04/24 06:25:15;;;;;;;;;;;11.00;66.80;;;;;;5153478;27;20448;-71
2022/04/24 06:27:40;;;;;;;;;;;11.00;66.60;;;;;;5153603;27;19950;-72
2022/04/24 06:30:06;;;;;;;;;;;11.00;66.50;;;;;;5153668;27;19954;-71
2022/04/24 06:32:35;;;;;;;;;;;11.10;66.50;;;;;;5153598;27;19918;-71
2022/04/24 06:35:02;;;;;;;;;;;11.10;66.50;;;;;;5153474;27;19911;-72
2022/04/24 06:37:28;;;;;;;;;;;11.20;66.60;;;;;;5153125;27;20006;-72
2022/04/24 06:39:53;;;;;;;;;;;11.30;66.60;;;;;;5153395;27;20009;-71
2022/04/24 06:42:19;;;;;;;;;;;11.40;66.60;;;;;;5153334;27;19915;-71
2022/04/24 06:44:45;;;;;;;;;;;11.40;66.80;;;;;;5153105;27;19929;-71
2022/04/24 06:47:10;;;;;;;;;;;11.50;66.80;;;;;;5153038;27;19911;-72
2022/04/24 06:49:36;;;;;;;;;;;11.50;67.10;;;;;;5153446;27;19918;-67
2022/04/24 06:52:01;;;;;;;;;;;11.60;66.90;;;;;;5152975;27;19918;-71
2022/04/24 06:54:27;;;;;;;;;;;11.60;67.10;;;;;;5152989;27;19907;-71
2022/04/24 06:56:53;;;;;;;;;;;11.70;67.20;;;;;;5152796;27;20334;-72
2022/04/24 06:59:18;;;;;;;;;;;11.80;67.10;;;;;;5152834;27;19915;-72
2022/04/24 07:01:44;;;;;;;;;;;11.90;67.10;;;;;;5153093;27;19915;-71
2022/04/24 07:04:09;;;;;;;;;;;12.10;67.30;;;;;;5152728;27;19911;-72
2022/04/24 07:06:35;;;;;;;;;;;12.30;67.10;;;;;;5152572;27;20311;-72
2022/04/24 07:09:00;;;;;;;;;;;12.40;67.10;;;;;;5152648;27;19918;-72
2022/04/24 07:11:26;;;;;;;;;;;12.50;67.20;;;;;;5152697;27;20349;-73
2022/04/24 07:13:51;;;;;;;;;;;12.80;67.60;;;;;;5134229;27;20281;-71
2022/04/24 07:16:17;;;;;;;;;;;13.20;67.80;;;;;;5134035;27;20027;-72
2022/04/24 07:18:42;;;;;;;;;;;13.80;67.50;;;;;;5152519;27;20484;-72
2022/04/24 07:21:08;;;;;;;;;;;14.40;67.20;;;;;;5152112;27;19915;-73
2022/04/24 07:23:35;;;;;;;;;;;14.80;66.30;;;;;;5152372;27;19998;-71
2022/04/24 07:26:01;;;;;;;;;;;14.90;66.40;;;;;;5152305;27;19979;-71
2022/04/24 07:28:26;;;;;;;;;;;15.10;66.20;;;;;;5152070;27;19907;-71
2022/04/24 07:30:52;;;;;;;;;;;15.20;65.90;;;;;;5133562;27;19919;-71
2022/04/24 07:33:17;;;;;;;;;;;15.30;66.10;;;;;;5152268;27;19919;-71
2022/04/24 07:35:43;;;;;;;;;;;15.20;66.50;;;;;;5152059;27;19907;-72
2022/04/24 07:38:09;;;;;;;;;;;15.10;66.60;;;;;;5133361;27;19949;-71
2022/04/24 07:40:37;;;;;;;;;;;15.20;67.00;;;;;;5133596;27;19921;-72
2022/04/24 07:43:04;;;;;;;;;;;15.70;67.30;;;;;;5152112;27;19908;-73
2022/04/24 07:45:30;;;;;;;;;;;16.60;67.40;;;;;;5151894;27;19934;-72
2022/04/24 07:47:57;;;;;;;;;;;17.60;66.20;;;;;;5133524;27;20326;-72
2022/04/24 07:50:23;;;;;;;;;;;18.50;65.80;;;;;;5151934;27;19907;-71
2022/04/24 07:52:49;;;;;;;;;;;19.30;65.10;;;;;;5151665;27;19911;-72
2022/04/24 07:55:17;;;;;;;;;;;19.90;64.80;;;;;;5151363;27;19907;-72
2022/04/24 07:57:43;;;;;;;;;;;20.30;64.60;;;;;;5151654;27;19907;-72
2022/04/24 08:00:09;;;;;;;;;;;20.50;64.30;;;;;;5132943;27;19910;-72
2022/04/24 08:02:47;;;;;;;;;;;20.80;64.60;;;;;;5151175;27;19917;-72
2022/04/24 08:05:18;;;;;;;;;;;21.00;64.30;;;;;;5151070;27;20286;-72
2022/04/24 08:07:43;;;;;;;;;;;21.10;64.40;;;;;;5151418;27;20382;-72
2022/04/24 08:10:09;;;;;;;;;;;21.50;64.20;;;;;;5151435;27;19919;-73
2022/04/24 08:12:34;;;;;;;;;;;21.70;63.10;;;;;;5151266;27;19913;-71
2022/04/24 08:15:00;;;;;;;;;;;21.80;62.90;;;;;;5132742;27;20377;-72
2022/04/24 08:17:26;;;;;;;;;;;22.00;62.90;;;;;;5150841;27;20290;-72
2022/04/24 08:19:51;;;;;;;;;;;21.50;61.40;;;;;;5132397;27;19911;-72
2022/04/24 08:22:17;;;;;;;;;;;20.60;61.40;;;;;;5150835;27;20369;-72
2022/04/24 08:24:42;;;;;;;;;;;20.00;62.60;;;;;;5150657;27;20297;-72
2022/04/24 08:27:08;;;;;;;;;;;20.00;62.50;;;;;;5150543;27;19915;-71
2022/04/24 08:29:33;;;;;;;;;;;20.20;63.40;;;;;;5131853;27;19918;-72
2022/04/24 08:31:59;;;;;;;;;;;20.70;63.60;;;;;;5150330;27;19911;-72
2022/04/24 08:34:25;;;;;;;;;;;21.10;62.90;;;;;;5131930;27;19926;-71
2022/04/24 08:36:50;;;;;;;;;;;21.40;62.60;;;;;;5150269;27;19916;-72
2022/04/24 08:39:16;;;;;;;;;;;21.80;62.20;;;;;;5132029;27;19915;-73
2022/04/24 08:41:42;;;;;;;;;;;21.80;61.20;;;;;;5149908;27;19934;-72
2022/04/24 08:44:10;;;;;;;;;;;21.80;61.20;;;;;;5150425;27;19926;-73
2022/04/24 08:46:36;;;;;;;;;;;21.40;60.90;;;;;;5150252;27;19998;-72
2022/04/24 08:49:02;;;;;;;;;;;21.20;60.50;;;;;;5150138;27;20379;-72
2022/04/24 08:51:29;;;;;;;;;;;21.50;60.90;;;;;;5150426;27;19914;-72
2022/04/24 08:53:54;;;;;;;;;;;21.80;61.00;;;;;;5150403;27;20396;-72
2022/04/24 08:56:20;;;;;;;;;;;21.30;59.60;;;;;;5131799;27;19907;-72
2022/04/24 08:58:46;;;;;;;;;;;20.50;59.70;;;;;;5150152;27;20361;-72
2022/04/24 09:01:11;;;;;;;;;;;19.80;60.20;;;;;;5150454;27;20146;-71
2022/04/24 09:03:37;;;;;;;;;;;19.30;59.90;;;;;;5150179;27;19922;-72
2022/04/24 09:06:02;;;;;;;;;;;19.40;61.20;;;;;;5131108;27;19915;-72
2022/04/24 09:08:30;;;;;;;;;;;19.50;61.00;;;;;;5114155;27;20397;-73
2022/04/24 09:10:57;;;;;;;;;;;19.40;60.20;;;;;;5131565;27;19939;-72
2022/04/24 09:13:26;;;;;;;;;;;19.90;61.80;;;;;;5131578;27;19911;-72
2022/04/24 09:15:58;;;;;;;;;;;20.50;61.00;;;;;;5150099;27;19912;-71
2022/04/24 09:18:37;;;;;;;;;;;21.00;60.70;;;;;;5149890;27;19960;-71
2022/04/24 09:21:03;;;;;;;;;;;21.10;59.70;;;;;;5130953;27;19911;-71
2022/04/24 09:23:36;;;;;;;;;;;20.40;58.40;;;;;;5149839;27;20322;-71
2022/04/24 09:26:01;;;;;;;;;;;19.80;59.20;;;;;;5149121;27;20396;-72
2022/04/24 09:28:40;;;;;;;;;;;19.60;60.00;;;;;;5149207;27;19914;-71
2022/04/24 09:31:06;;;;;;;;;;;20.20;60.80;;;;;;5149495;27;20284;-72
2022/04/24 09:33:42;;;;;;;;;;;20.60;60.40;;;;;;5149340;27;19907;-72
2022/04/24 09:36:08;;;;;;;;;;;20.60;59.90;;;;;;5149451;27;19913;-72
2022/04/24 09:38:44;;;;;;;;;;;21.00;60.20;;;;;;5149711;27;20376;-72
2022/04/24 09:41:19;;;;;;;;;;;21.60;59.90;;;;;;5130327;27;20325;-72
2022/04/24 09:43:45;;;;;;;;;;;21.70;59.30;;;;;;5149115;27;19911;-72
2022/04/24 09:46:11;;;;;;;;;;;22.30;59.50;;;;;;5149005;27;19954;-72
2022/04/24 09:48:37;;;;;;;;;;;23.10;59.70;;;;;;5149306;27;19907;-71
2022/04/24 09:51:02;;;;;;;;;;;23.70;59.00;;;;;;5149122;27;19907;-72
2022/04/24 09:53:29;;;;;;;;;;;24.40;59.10;;;;;;5148099;27;19907;-73
2022/04/24 09:55:54;;;;;;;;;;;24.70;58.60;;;;;;5148314;27;20017;-72
2022/04/24 09:58:23;;;;;;;;;;;24.90;57.80;;;;;;5148496;27;20064;-72
2022/04/24 10:00:50;;;;;;;;;;;25.00;58.00;;;;;;5148512;27;20361;-71
2022/04/24 10:03:17;;;;;;;;;;;24.80;57.40;;;;;;5148021;27;19907;-71
2022/04/24 10:05:45;;;;;;;;;;;24.60;56.40;;;;;;5129923;27;20022;-71
2022/04/24 10:08:11;;;;;;;;;;;24.30;56.70;;;;;;5148785;27;19907;-72
2022/04/24 10:10:37;;;;;;;;;;;24.20;56.80;;;;;;5148899;27;20265;-73
2022/04/24 10:13:06;;;;;;;;;;;24.20;56.50;;;;;;5148796;27;19911;-72
2022/04/24 10:15:33;;;;;;;;;;;24.10;56.00;;;;;;5148596;27;19907;-72
2022/04/24 10:18:16;;;;;;;;;;;24.00;56.00;;;;;;5148705;27;19918;-72
2022/04/24 10:20:41;;;;;;;;;;;24.00;56.10;;;;;;5149143;27;19972;-72
2022/04/24 10:23:09;;;;;;;;;;;24.20;55.40;;;;;;5148711;27;19959;-72
2022/04/24 10:25:41;;;;;;;;;;;24.30;55.30;;;;;;5148459;27;19912;-72
2022/04/24 10:28:12;;;;;;;;;;;24.40;55.30;;;;;;5148361;27;19907;-72
2022/04/24 10:30:38;;;;;;;;;;;24.10;54.20;;;;;;5148667;27;20129;-72
2022/04/24 10:33:15;;;;;;;;;;;24.10;55.30;;;;;;5148619;27;20364;-73
2022/04/24 10:35:48;;;;;;;;;;;24.50;55.50;;;;;;5148745;27;20009;-71
2022/04/24 10:38:14;;;;;;;;;;;24.70;54.50;;;;;;5148698;27;19919;-71
2022/04/24 10:40:40;;;;;;;;;;;24.30;53.70;;;;;;5148432;27;19958;-72
2022/04/24 10:43:07;;;;;;;;;;;23.90;54.50;;;;;;5148411;27;20016;-72
2022/04/24 10:45:44;;;;;;;;;;;23.80;54.30;;;;;;5148475;27;19915;-71
2022/04/24 10:48:13;;;;;;;;;;;23.40;54.00;;;;;;5148233;27;19922;-71
2022/04/24 10:50:45;;;;;;;;;;;22.50;53.60;;;;;;5148124;27;19911;-70
2022/04/24 10:53:11;;;;;;;;;;;21.80;54.00;;;;;;5148327;27;19995;-71
2022/04/24 10:55:36;;;;;;;;;;;21.30;55.20;;;;;;5148470;27;20365;-73
2022/04/24 10:58:03;;;;;;;;;;;21.30;55.70;;;;;;5148119;27;20088;-72
2022/04/24 11:00:32;;;;;;;;;;;21.40;55.60;;;;;;5147597;27;20342;-71
2022/04/24 11:03:05;;;;;;;;;;;21.80;55.90;;;;;;5147834;27;19919;-72
2022/04/24 11:05:35;;;;;;;;;;;22.40;55.00;;;;;;5149643;27;19964;-71
2022/04/24 11:08:02;;;;;;;;;;;23.00;54.70;;;;;;5152093;27;20303;-72
2022/04/24 11:10:28;;;;;;;;;;;23.50;54.30;;;;;;5151626;27;19918;-72
2022/04/24 11:12:54;;;;;;;;;;;24.10;54.40;;;;;;5151564;27;19910;-72
2022/04/24 11:15:20;;;;;;;;;;;24.80;54.20;;;;;;5151159;27;19907;-72
2022/04/24 11:17:46;;;;;;;;;;;25.10;53.80;;;;;;5151494;27;20013;-72
2022/04/24 11:20:15;;;;;;;;;;;25.10;53.30;;;;;;5132588;27;19907;-72
2022/04/24 11:22:48;;;;;;;;;;;24.80;53.70;;;;;;5151357;27;19971;-72
2022/04/24 11:25:17;;;;;;;;;;;24.80;53.90;;;;;;5150856;27;19950;-70
2022/04/24 11:27:44;;;;;;;;;;;25.20;54.10;;;;;;5151567;27;19918;-72
2022/04/24 11:30:20;;;;;;;;;;;25.40;53.50;;;;;;5151235;27;19929;-72
2022/04/24 11:32:59;;;;;;;;;;;25.50;53.20;;;;;;5151277;27;20285;-73
2022/04/24 11:35:26;;;;;;;;;;;25.50;53.20;;;;;;5132422;27;19907;-74
2022/04/24 11:37:53;;;;;;;;;;;25.40;52.50;;;;;;5128604;27;19919;-71
2022/04/24 11:40:19;;;;;;;;;;;25.10;52.20;;;;;;5128798;27;19911;-71
2022/04/24 11:42:44;;;;;;;;;;;25.10;52.20;;;;;;5129045;27;19994;-72
2022/04/24 11:50:47;;;;;;;;;;;24.80;51.90;;;;;;5130373;27;20378;-70
2022/04/24 11:53:13;;;;;;;;;;;24.80;52.20;;;;;;5130191;27;19956;-70
2022/04/24 11:58:23;;;;;;;;;;;24.90;52.00;;;;;;5130436;27;20304;-70
2022/04/24 12:00:48;;;;;;;;;;;24.70;52.70;;;;;;5129792;27;20017;-69
2022/04/24 12:03:14;;;;;;;;;;;24.90;52.80;;;;;;5130026;27;19929;-71
2022/04/24 12:05:41;;;;;;;;;;;25.00;52.30;;;;;;5129398;27;19915;-71
2022/04/24 12:08:07;;;;;;;;;;;25.10;52.70;;;;;;5129798;27;19915;-71
2022/04/24 12:10:32;;;;;;;;;;;25.40;52.40;;;;;;5129846;27;20260;-71
2022/04/24 12:13:04;;;;;;;;;;;25.50;51.70;;;;;;5130202;27;19911;-72
2022/04/24 12:15:30;;;;;;;;;;;25.30;51.60;;;;;;5129799;27;19914;-71
2022/04/24 12:17:56;;;;;;;;;;;25.20;52.10;;;;;;5129017;27;20273;-71
2022/04/24 12:20:22;;;;;;;;;;;25.50;52.00;;;;;;5129671;27;19919;-72
2022/04/24 12:22:48;;;;;;;;;;;25.20;51.20;;;;;;5129158;27;19911;-62
2022/04/24 12:25:18;;;;;;;;;;;24.80;51.00;;;;;;5127560;27;19918;-72
2022/04/24 12:27:56;;;;;;;;;;;24.40;51.10;;;;;;5129171;27;19934;-71
2022/04/24 12:30:24;;;;;;;;;;;24.20;51.50;;;;;;5129636;27;19911;-71
2022/04/24 12:32:49;;;;;;;;;;;24.20;51.10;;;;;;5129390;27;19926;-72
2022/04/24 12:35:28;;;;;;;;;;;23.60;51.00;;;;;;5128257;27;19918;-72
2022/04/24 12:37:54;;;;;;;;;;;23.30;52.20;;;;;;5145261;27;19919;-71
2022/04/24 12:40:21;;;;;;;;;;;23.50;52.60;;;;;;5131144;27;19914;-72
2022/04/24 12:42:55;;;;;;;;;;;23.80;52.20;;;;;;5149907;27;19917;-72
2022/04/24 12:45:21;;;;;;;;;;;24.20;52.40;;;;;;5149706;27;20344;-72
2022/04/24 12:47:47;;;;;;;;;;;24.50;51.50;;;;;;5150001;27;19907;-71
2022/04/24 12:50:16;;;;;;;;;;;23.80;50.60;;;;;;5149808;27;19968;-72
2022/04/24 12:52:42;;;;;;;;;;;23.00;51.00;;;;;;5149828;27;19907;-72
2022/04/24 12:55:08;;;;;;;;;;;22.50;51.90;;;;;;5149948;27;19911;-72
2022/04/24 12:57:33;;;;;;;;;;;22.40;52.30;;;;;;5149907;27;20423;-71
2022/04/24 12:59:59;;;;;;;;;;;22.40;51.80;;;;;;5149469;27;19955;-73
2022/04/24 13:02:26;;;;;;;;;;;22.50;52.00;;;;;;5149981;27;20388;-73
2022/04/24 13:04:52;;;;;;;;;;;22.90;52.40;;;;;;5150151;27;19976;-72
2022/04/24 13:07:17;;;;;;;;;;;23.40;52.20;;;;;;5149795;27;20309;-72
2022/04/24 13:09:43;;;;;;;;;;;23.70;51.80;;;;;;5149712;27;19914;-72
2022/04/24 13:12:11;;;;;;;;;;;23.90;51.60;;;;;;5149138;27;20020;-73
2022/04/24 13:14:37;;;;;;;;;;;23.60;50.80;;;;;;5149244;27;20013;-73
2022/04/24 13:19:47;;;;;;;;;;;23.00;52.00;;;;;;5149409;27;19960;-72
2022/04/24 13:22:12;;;;;;;;;;;23.10;52.20;;;;;;5148812;27;19966;-72
2022/04/24 13:24:38;;;;;;;;;;;22.90;52.40;;;;;;5148265;27;19985;-71
2022/04/24 13:27:04;;;;;;;;;;;22.90;52.40;;;;;;5149287;27;20353;-72
2022/04/24 13:29:30;;;;;;;;;;;22.80;52.10;;;;;;5149021;27;19954;-71
2022/04/24 13:31:55;;;;;;;;;;;22.30;52.20;;;;;;5149159;27;20268;-72
2022/04/24 13:34:21;;;;;;;;;;;22.00;51.90;;;;;;5148796;27;19922;-72
2022/04/24 13:36:46;;;;;;;;;;;21.50;51.50;;;;;;5147547;27;19941;-71
2022/04/24 13:39:12;;;;;;;;;;;21.10;51.20;;;;;;5129909;27;19911;-71
2022/04/24 13:41:38;;;;;;;;;;;20.40;51.20;;;;;;5148358;27;19911;-72
2022/04/24 13:44:05;;;;;;;;;;;20.00;51.50;;;;;;5148999;27;19911;-71
2022/04/24 13:46:31;;;;;;;;;;;19.60;51.50;;;;;;5148691;27;19919;-72
2022/04/24 13:48:57;;;;;;;;;;;19.10;51.80;;;;;;5148356;27;19918;-72
2022/04/24 13:51:22;;;;;;;;;;;18.70;52.00;;;;;;5148225;27;19911;-71
2022/04/24 13:53:48;;;;;;;;;;;18.40;52.40;;;;;;5148100;27;19937;-71
2022/04/24 13:56:13;;;;;;;;;;;18.20;52.30;;;;;;5148059;27;19933;-71
2022/04/24 13:58:39;;;;;;;;;;;17.90;52.60;;;;;;5148511;27;19960;-72
2022/04/24 14:01:06;;;;;;;;;;;17.80;53.00;;;;;;5149193;27;19914;-72
2022/04/24 14:03:32;;;;;;;;;;;17.70;52.80;;;;;;5129458;27;19911;-71
2022/04/24 14:05:57;;;;;;;;;;;17.70;53.00;;;;;;5129582;27;19962;-71
2022/04/24 14:08:26;;;;;;;;;;;17.60;53.00;;;;;;5148207;27;20387;-71
2022/04/24 14:10:52;;;;;;;;;;;17.40;53.40;;;;;;5148577;27;19922;-70
2022/04/24 14:13:18;;;;;;;;;;;17.40;53.30;;;;;;5148341;27;19911;-71
2022/04/24 14:15:43;;;;;;;;;;;17.40;53.40;;;;;;5147839;27;20243;-71
2022/04/24 14:18:09;;;;;;;;;;;17.40;54.00;;;;;;5148453;27;19916;-71
2022/04/24 14:20:34;;;;;;;;;;;17.40;53.40;;;;;;5148595;27;19911;-71
2022/04/24 14:23:02;;;;;;;;;;;17.40;53.60;;;;;;5147979;27;20373;-70
2022/04/24 14:25:28;;;;;;;;;;;17.40;53.40;;;;;;5148369;27;20019;-71
2022/04/24 14:27:53;;;;;;;;;;;17.40;53.50;;;;;;5148289;27;19943;-71